createdAt,value
2019-02-22T00:00:41.750Z,61.30
2019-02-22T00:03:10.935Z,61.99
2019-02-22T00:05:40.178Z,61.81
2019-02-22T00:08:09.288Z,64.56
2019-02-22T00:10:39.508Z,63.86
2019-02-22T00:13:09.183Z,62.60
2019-02-22T00:15:38.395Z,62.50
2019-02-22T00:18:08.003Z,61.96
2019-02-22T00:20:41.247Z,62.28
2019-02-22T00:23:11.893Z,62.69
2019-02-22T00:25:42.801Z,62.49
2019-02-22T00:28:16.252Z,62.50
2019-02-22T00:30:54.649Z,62.46
2019-02-22T00:33:25.298Z,64.04
2019-02-22T00:35:56.640Z,65.27
2019-02-22T00:38:29.474Z,65.36
2019-02-22T00:41:01.506Z,64.11
2019-02-22T00:43:33.788Z,65.75
2019-02-22T00:46:05.972Z,64.56
2019-02-22T00:48:38.904Z,65.57
2019-02-22T00:51:10.280Z,67.81
2019-02-22T00:53:40.883Z,67.96
2019-02-22T00:56:14.618Z,67.00
2019-02-22T00:58:47.276Z,66.70
2019-02-22T01:01:16.394Z,66.37
2019-02-22T01:03:46.786Z,66.04
2019-02-22T01:06:16.084Z,66.49
2019-02-22T01:08:45.343Z,67.80
2019-02-22T01:11:14.943Z,66.53
2019-02-22T01:13:44.106Z,67.33
2019-02-22T01:16:15.021Z,65.96
2019-02-22T01:18:53.722Z,66.02
2019-02-22T01:21:22.871Z,65.84
2019-02-22T01:23:52.095Z,67.26
2019-02-22T01:26:23.060Z,67.23
2019-02-22T01:29:06.471Z,66.08
2019-02-22T01:31:23.047Z,66.23
2019-02-22T01:33:54.082Z,66.76
2019-02-22T01:36:23.090Z,68.08
2019-02-22T01:39:01.482Z,68.19
2019-02-22T01:41:30.609Z,67.04
2019-02-22T01:44:02.776Z,66.62
2019-02-22T01:46:35.225Z,67.90
2019-02-22T01:49:04.537Z,68.94
2019-02-22T01:51:33.661Z,68.39
2019-02-22T01:54:04.913Z,66.58
2019-02-22T01:56:33.800Z,67.89
2019-02-22T01:59:03.844Z,66.41
2019-02-22T02:01:33.024Z,67.83
2019-02-22T02:04:02.062Z,68.86
2019-02-22T02:06:32.593Z,69.25
2019-02-22T02:09:05.308Z,69.59
2019-02-22T02:11:35.820Z,68.77
2019-02-22T02:14:11.138Z,68.62
2019-02-22T02:16:47.283Z,66.19
2019-02-22T02:19:18.086Z,66.33
2019-02-22T02:21:59.414Z,65.16
2019-02-22T02:24:29.774Z,62.94
2019-02-22T02:26:59.863Z,65.47
2019-02-22T02:29:31.740Z,65.77
2019-02-22T02:32:00.840Z,66.33
2019-02-22T02:34:29.959Z,66.83
2019-02-22T02:37:00.102Z,65.99
2019-02-22T02:39:32.773Z,65.14
2019-02-22T02:42:01.917Z,64.83
2019-02-22T02:44:32.215Z,64.85
2019-02-22T02:47:02.419Z,63.93
2019-02-22T02:49:33.246Z,63.87
2019-02-22T02:52:04.269Z,62.50
2019-02-22T02:54:34.542Z,63.75
2019-02-22T02:57:03.699Z,64.94
2019-02-22T02:59:35.034Z,65.08
2019-02-22T03:02:14.209Z,67.01
2019-02-22T03:04:43.426Z,66.59
2019-02-22T03:07:22.152Z,67.67
2019-02-22T03:09:51.270Z,67.78
2019-02-22T03:12:26.930Z,67.34
2019-02-22T03:14:57.132Z,67.98
2019-02-22T03:17:28.053Z,66.29
2019-02-22T03:19:58.279Z,69.37
2019-02-22T03:22:29.828Z,70.96
2019-02-22T03:24:58.929Z,73.13
2019-02-22T03:27:29.714Z,73.47
2019-02-22T03:29:58.780Z,76.02
2019-02-22T03:32:32.048Z,73.76
2019-02-22T03:35:01.168Z,75.70
2019-02-22T03:37:31.085Z,76.34
2019-02-22T03:40:00.391Z,77.29
2019-02-22T03:42:39.085Z,76.86
2019-02-22T03:45:14.223Z,74.73
2019-02-22T03:47:45.228Z,75.87
2019-02-22T03:50:14.538Z,76.88
2019-02-22T03:52:50.508Z,73.64
2019-02-22T03:55:20.004Z,73.85
2019-02-22T03:57:55.434Z,74.78
2019-02-22T04:00:27.806Z,72.18
2019-02-22T04:02:56.921Z,70.43
2019-02-22T04:05:26.041Z,72.75
2019-02-22T04:07:55.232Z,73.51
2019-02-22T04:10:30.560Z,75.79
2019-02-22T04:13:02.005Z,75.37
2019-02-22T04:15:36.667Z,73.53
2019-02-22T04:18:11.161Z,74.07
2019-02-22T04:20:40.342Z,72.55
2019-02-22T04:23:09.454Z,71.11
2019-02-22T04:25:42.426Z,73.46
2019-02-22T04:28:11.537Z,71.28
2019-02-22T04:30:40.642Z,70.43
2019-02-22T04:33:11.495Z,72.95
2019-02-22T04:35:40.644Z,73.52
2019-02-22T04:38:09.777Z,74.51
2019-02-22T04:40:39.154Z,76.43
2019-02-22T04:43:11.219Z,78.61
2019-02-22T04:45:40.361Z,77.95
2019-02-22T04:48:11.182Z,79.80
2019-02-22T04:50:41.240Z,80.16
2019-02-22T04:53:10.345Z,78.00
2019-02-22T04:55:40.936Z,78.49
2019-02-22T04:58:15.393Z,75.75
2019-02-22T05:00:44.548Z,76.29
2019-02-22T05:03:17.852Z,78.33
2019-02-22T05:05:50.900Z,78.64
2019-02-22T05:08:22.523Z,78.86
2019-02-22T05:10:53.288Z,78.18
2019-02-22T05:13:22.602Z,78.93
2019-02-22T05:15:51.726Z,76.50
2019-02-22T05:18:20.872Z,78.38
2019-02-22T05:20:54.685Z,75.65
2019-02-22T05:23:23.845Z,76.40
2019-02-22T05:25:54.226Z,75.16
2019-02-22T05:28:23.869Z,76.07
2019-02-22T05:30:55.221Z,74.95
2019-02-22T05:33:24.365Z,77.20
2019-02-22T05:35:54.664Z,72.30
2019-02-22T05:38:27.648Z,72.73
2019-02-22T05:41:02.470Z,74.08
2019-02-22T05:43:32.015Z,73.49
2019-02-22T05:46:04.304Z,74.10
2019-02-22T05:48:33.483Z,74.81
2019-02-22T05:51:02.615Z,74.24
2019-02-22T05:53:31.783Z,74.50
2019-02-22T05:56:00.935Z,75.50
2019-02-22T05:58:30.071Z,73.52
2019-02-22T06:01:06.604Z,72.15
2019-02-22T06:03:37.346Z,71.70
2019-02-22T06:06:12.925Z,70.95
2019-02-22T06:08:42.063Z,77.08
2019-02-22T06:11:12.861Z,77.23
2019-02-22T06:13:42.140Z,77.08
2019-02-22T06:16:13.179Z,75.84
2019-02-22T06:18:42.400Z,73.67
2019-02-22T06:21:11.824Z,72.90
2019-02-22T06:23:46.084Z,73.80
2019-02-22T06:26:15.438Z,74.43
2019-02-22T06:28:44.559Z,74.66
2019-02-22T06:31:14.874Z,73.30
2019-02-22T06:33:45.707Z,71.43
2019-02-22T06:36:18.770Z,75.63
2019-02-22T06:38:48.109Z,78.93
2019-02-22T06:41:17.305Z,77.14
2019-02-22T06:43:49.191Z,78.25
2019-02-22T06:46:19.964Z,78.24
2019-02-22T06:48:54.958Z,79.44
2019-02-22T06:51:24.439Z,79.39
2019-02-22T06:53:54.677Z,82.04
2019-02-22T06:56:24.376Z,80.33
2019-02-22T06:58:54.669Z,81.21
2019-02-22T07:01:28.049Z,82.30
2019-02-22T07:03:59.288Z,82.50
2019-02-22T07:06:28.715Z,80.52
2019-02-22T07:08:58.224Z,82.24
2019-02-22T07:11:50.823Z,83.63
2019-02-22T07:14:22.959Z,83.07
2019-02-22T07:16:52.687Z,82.38
2019-02-22T07:19:23.807Z,81.27
2019-02-22T07:21:53.308Z,81.84
2019-02-22T07:24:22.412Z,80.33
2019-02-22T07:26:55.006Z,79.34
2019-02-22T07:29:24.150Z,77.84
2019-02-22T07:32:02.678Z,76.60
2019-02-22T07:34:24.438Z,78.38
2019-02-22T07:36:55.222Z,81.93
2019-02-22T07:39:27.879Z,79.78
2019-02-22T07:41:57.385Z,79.57
2019-02-22T07:44:26.687Z,81.22
2019-02-22T07:46:58.343Z,80.80
2019-02-22T07:49:28.839Z,80.76
2019-02-22T07:52:02.294Z,81.47
2019-02-22T07:54:31.837Z,80.84
2019-02-22T07:57:04.664Z,77.59
2019-02-22T07:59:33.818Z,80.17
2019-02-22T08:02:03.051Z,81.78
2019-02-22T08:04:32.485Z,80.14
2019-02-22T08:07:02.110Z,80.71
2019-02-22T08:09:35.079Z,79.54
2019-02-22T08:12:05.079Z,77.84
2019-02-22T08:14:34.206Z,77.74
2019-02-22T08:17:03.728Z,80.41
2019-02-22T08:19:36.050Z,81.02
2019-02-22T08:22:05.704Z,79.72
2019-02-22T08:24:37.897Z,79.13
2019-02-22T08:27:10.057Z,78.92
2019-02-22T08:29:40.921Z,78.50
2019-02-22T08:32:12.689Z,79.18
2019-02-22T08:34:42.615Z,81.33
2019-02-22T08:37:11.803Z,81.23
2019-02-22T08:39:41.563Z,80.32
2019-02-22T08:42:18.902Z,78.63
2019-02-22T08:44:51.739Z,78.94
2019-02-22T08:47:24.092Z,77.01
2019-02-22T08:49:56.264Z,79.60
2019-02-22T08:52:27.089Z,81.37
2019-02-22T08:54:57.722Z,81.58
2019-02-22T08:57:27.339Z,80.18
2019-02-22T08:59:56.689Z,81.70
2019-02-22T09:02:28.502Z,79.97
2019-02-22T09:04:59.839Z,79.14
2019-02-22T09:07:38.959Z,80.49
2019-02-22T09:10:01.808Z,80.97
2019-02-22T09:12:34.606Z,80.17
2019-02-22T09:15:04.276Z,78.74
2019-02-22T09:17:34.677Z,78.35
2019-02-22T09:20:06.770Z,76.17
2019-02-22T09:22:40.311Z,79.05
2019-02-22T09:25:13.034Z,75.68
2019-02-22T09:27:44.223Z,79.02
2019-02-22T09:30:13.441Z,78.90
2019-02-22T09:32:44.578Z,79.24
2019-02-22T09:35:14.655Z,77.56
2019-02-22T09:37:53.352Z,77.41
2019-02-22T09:40:22.691Z,75.90
2019-02-22T09:42:52.701Z,76.35
2019-02-22T09:45:24.326Z,73.96
2019-02-22T09:47:52.764Z,74.52
2019-02-22T09:50:24.382Z,74.08
2019-02-22T09:52:59.753Z,77.28
2019-02-22T09:55:29.002Z,76.69
2019-02-22T09:57:58.731Z,75.90
2019-02-22T10:00:27.847Z,76.91
2019-02-22T10:02:57.251Z,74.54
2019-02-22T10:05:27.892Z,72.93
2019-02-22T10:07:57.505Z,73.63
2019-02-22T10:10:26.672Z,72.37
2019-02-22T10:13:00.269Z,70.26
2019-02-22T10:15:31.258Z,71.17
2019-02-22T10:18:00.412Z,69.81
2019-02-22T10:20:34.952Z,69.71
2019-02-22T10:23:09.548Z,70.18
2019-02-22T10:25:48.555Z,69.04
2019-02-22T10:28:21.885Z,70.07
2019-02-22T10:30:51.246Z,69.44
2019-02-22T10:33:35.946Z,68.75
2019-02-22T10:35:58.547Z,68.87
2019-02-22T10:38:35.683Z,68.69
2019-02-22T10:41:11.063Z,67.71
2019-02-22T10:43:40.214Z,65.70
2019-02-22T10:46:12.123Z,65.18
2019-02-22T10:48:44.537Z,66.40
2019-02-22T10:51:13.647Z,66.21
2019-02-22T10:53:44.761Z,66.73
2019-02-22T10:56:17.848Z,67.14
2019-02-22T10:58:48.685Z,65.14
2019-02-22T11:01:24.844Z,65.54
2019-02-22T11:03:59.733Z,65.80
2019-02-22T11:06:28.840Z,65.36
2019-02-22T11:09:06.081Z,65.27
2019-02-22T11:11:35.630Z,65.26
2019-02-22T11:14:05.183Z,65.56
2019-02-22T11:16:34.558Z,65.22
2019-02-22T11:19:05.271Z,60.68
2019-02-22T11:21:34.831Z,61.43
2019-02-22T11:24:08.961Z,60.46
2019-02-22T11:26:38.525Z,61.09
2019-02-22T11:29:09.518Z,60.45
2019-02-22T11:31:41.141Z,58.63
2019-02-22T11:34:10.343Z,57.47
2019-02-22T11:36:39.459Z,57.08
2019-02-22T11:39:10.458Z,55.80
2019-02-22T11:41:39.783Z,55.83
2019-02-22T11:44:25.523Z,56.48
2019-02-22T11:46:54.679Z,57.48
2019-02-22T11:49:23.794Z,57.37
2019-02-22T11:51:55.815Z,56.25
2019-02-22T11:54:24.094Z,56.37
2019-02-22T11:56:53.337Z,56.16
2019-02-22T11:59:24.433Z,55.20
2019-02-22T12:01:56.767Z,55.39
2019-02-22T12:04:26.107Z,54.34
2019-02-22T12:06:55.603Z,55.15
2019-02-22T12:09:27.989Z,55.14
2019-02-22T12:12:04.464Z,54.97
2019-02-22T12:14:34.739Z,55.34
2019-02-22T12:17:04.332Z,55.22
2019-02-22T12:19:33.562Z,54.80
2019-02-22T12:22:02.728Z,54.83
2019-02-22T12:24:34.690Z,55.60
2019-02-22T12:27:06.943Z,54.15
2019-02-22T12:29:36.169Z,53.78
2019-02-22T12:32:09.854Z,53.62
2019-02-22T12:34:40.175Z,53.53
2019-02-22T12:37:09.417Z,53.79
2019-02-22T12:39:42.358Z,52.34
2019-02-22T12:42:14.426Z,51.31
2019-02-22T12:44:49.543Z,49.08
2019-02-22T12:47:20.404Z,50.99
2019-02-22T12:49:49.606Z,52.13
2019-02-22T12:52:20.730Z,51.15
2019-02-22T12:54:55.466Z,51.69
2019-02-22T12:57:31.765Z,51.24
2019-02-22T13:00:02.027Z,51.81
2019-02-22T13:02:35.016Z,52.13
2019-02-22T13:05:06.322Z,51.36
2019-02-22T13:07:38.342Z,51.36
2019-02-22T13:10:10.515Z,50.33
2019-02-22T13:12:43.973Z,50.45
2019-02-22T13:15:14.822Z,50.48
2019-02-22T13:17:44.473Z,51.06
2019-02-22T13:20:15.745Z,50.64
2019-02-22T13:22:50.950Z,50.56
2019-02-22T13:25:21.584Z,50.44
2019-02-22T13:27:55.241Z,50.30
2019-02-22T13:30:25.714Z,50.78
2019-02-22T13:32:58.595Z,50.91
2019-02-22T13:35:30.500Z,51.10
2019-02-22T13:37:59.804Z,50.62
2019-02-22T13:40:30.121Z,50.47
2019-02-22T13:43:01.696Z,51.10
2019-02-22T13:45:32.732Z,51.09
2019-02-22T13:48:01.967Z,51.16
2019-02-22T13:50:31.113Z,51.83
2019-02-22T13:53:00.397Z,52.27
2019-02-22T13:55:39.604Z,52.45
2019-02-22T13:58:08.776Z,53.03
2019-02-22T14:00:47.038Z,53.59
2019-02-22T14:03:16.355Z,53.64
2019-02-22T14:05:48.223Z,53.36
2019-02-22T14:08:17.459Z,52.86
2019-02-22T14:10:48.696Z,52.87
2019-02-22T14:13:18.776Z,52.60
2019-02-22T14:15:48.175Z,52.31
2019-02-22T14:18:17.531Z,52.82
2019-02-22T14:20:49.636Z,51.90
2019-02-22T14:23:18.812Z,52.26
2019-02-22T14:25:48.090Z,51.84
2019-02-22T14:28:17.713Z,51.51
2019-02-22T14:30:46.890Z,51.65
2019-02-22T14:33:16.295Z,51.50
2019-02-22T14:35:45.412Z,51.12
2019-02-22T14:38:31.903Z,51.59
2019-02-22T14:41:16.189Z,51.84
2019-02-22T14:43:45.319Z,50.50
2019-02-22T14:46:25.367Z,49.14
2019-02-22T14:48:45.309Z,49.56
2019-02-22T14:51:15.381Z,49.76
2019-02-22T14:53:46.572Z,49.86
2019-02-22T14:56:15.783Z,49.95
2019-02-22T14:58:47.265Z,49.79
2019-02-22T15:01:25.514Z,50.27
2019-02-22T15:04:00.225Z,49.35
2019-02-22T15:06:36.789Z,49.54
2019-02-22T15:09:06.811Z,49.00
2019-02-22T15:11:36.575Z,48.15
2019-02-22T15:14:07.300Z,48.51
2019-02-22T15:16:59.651Z,48.63
2019-02-22T15:19:28.812Z,49.36
2019-02-22T15:22:07.050Z,49.84
2019-02-22T15:24:36.193Z,50.45
2019-02-22T15:27:05.329Z,49.85
2019-02-22T15:29:34.445Z,49.58
2019-02-22T15:32:04.715Z,49.36
2019-02-22T15:34:36.180Z,48.64
2019-02-22T15:37:27.036Z,48.38
2019-02-22T15:40:00.468Z,47.63
2019-02-22T15:42:33.158Z,48.39
2019-02-22T15:45:06.089Z,48.21
2019-02-22T15:47:35.148Z,47.67
2019-02-22T15:50:08.144Z,47.62
2019-02-22T15:52:39.348Z,47.72
2019-02-22T15:55:09.156Z,48.40
2019-02-22T15:57:40.085Z,48.85
2019-02-22T16:00:12.503Z,48.13
2019-02-22T16:02:41.640Z,47.77
2019-02-22T16:05:32.912Z,47.52
2019-02-22T16:08:07.972Z,47.48
2019-02-22T16:10:52.734Z,47.50
2019-02-22T16:13:27.467Z,47.33
2019-02-22T16:15:56.755Z,47.42
2019-02-22T16:18:26.849Z,47.31
2019-02-22T16:20:57.888Z,47.00
2019-02-22T16:23:28.390Z,48.45
2019-02-22T16:26:00.457Z,47.75
2019-02-22T16:28:34.972Z,47.36
2019-02-22T16:31:06.912Z,47.62
2019-02-22T16:33:36.051Z,47.89
2019-02-22T16:36:08.412Z,47.65
2019-02-22T16:38:39.031Z,47.93
2019-02-22T16:41:08.135Z,48.61
2019-02-22T16:43:38.982Z,48.71
2019-02-22T16:46:08.280Z,48.63
2019-02-22T16:48:37.630Z,49.21
2019-02-22T16:51:06.806Z,49.70
2019-02-22T16:53:37.079Z,50.42
2019-02-22T16:56:09.628Z,50.75
2019-02-22T16:58:38.827Z,50.65
2019-02-22T17:01:08.417Z,50.63
2019-02-22T17:03:37.543Z,50.41
2019-02-22T17:06:06.696Z,50.57
2019-02-22T17:08:35.856Z,50.80
2019-02-22T17:11:05.299Z,50.82
2019-02-22T17:13:36.315Z,50.63
2019-02-22T17:16:10.810Z,50.28
2019-02-22T17:18:40.037Z,50.13
2019-02-22T17:21:13.268Z,50.00
2019-02-22T17:23:40.625Z,49.63
2019-02-22T17:26:13.127Z,49.64
2019-02-22T17:28:42.594Z,49.99
2019-02-22T17:31:13.487Z,49.60
2019-02-22T17:33:45.031Z,50.15
2019-02-22T17:36:14.170Z,50.34
2019-02-22T17:38:44.002Z,50.51
2019-02-22T17:41:16.763Z,50.38
2019-02-22T17:43:49.335Z,50.81
2019-02-22T17:46:21.675Z,50.81
2019-02-22T17:48:52.847Z,50.84
2019-02-22T17:51:23.048Z,51.12
2019-02-22T17:53:55.179Z,51.48
2019-02-22T17:56:24.301Z,51.95
2019-02-22T17:58:53.454Z,52.52
2019-02-22T18:01:25.025Z,52.46
2019-02-22T18:03:54.137Z,52.58
2019-02-22T18:06:23.283Z,52.94
2019-02-22T18:08:54.068Z,53.42
2019-02-22T18:11:23.275Z,53.76
2019-02-22T18:13:53.890Z,54.24
2019-02-22T18:16:24.596Z,54.66
2019-02-22T18:18:54.559Z,55.16
2019-02-22T18:21:24.864Z,55.85
2019-02-22T18:23:54.003Z,55.71
2019-02-22T18:26:23.113Z,55.80
2019-02-22T18:28:55.241Z,56.14
2019-02-22T18:31:29.538Z,56.64
2019-02-22T18:34:01.725Z,56.98
2019-02-22T18:36:30.883Z,56.99
2019-02-22T18:38:59.989Z,56.85
2019-02-22T18:41:29.099Z,57.19
2019-02-22T18:43:59.034Z,57.48
2019-02-22T18:46:28.146Z,57.64
2019-02-22T18:48:57.291Z,57.53
2019-02-22T18:51:27.612Z,57.41
2019-02-22T18:54:02.384Z,57.93
2019-02-22T18:56:31.555Z,58.17
2019-02-22T18:59:02.367Z,58.73
2019-02-22T19:01:31.542Z,58.39
2019-02-22T19:04:02.558Z,58.45
2019-02-22T19:06:31.944Z,58.17
2019-02-22T19:09:13.183Z,58.98
2019-02-22T19:11:45.606Z,58.67
2019-02-22T19:14:16.341Z,58.50
2019-02-22T19:16:45.541Z,57.70
2019-02-22T19:19:16.198Z,57.52
2019-02-22T19:21:45.488Z,56.77
2019-02-22T19:24:18.052Z,56.31
2019-02-22T19:26:47.160Z,56.01
2019-02-22T19:29:20.393Z,56.73
2019-02-22T19:31:51.154Z,56.26
2019-02-22T19:34:25.715Z,56.78
2019-02-22T19:36:55.287Z,57.19
2019-02-22T19:39:27.292Z,56.56
2019-02-22T19:41:56.584Z,55.69
2019-02-22T19:44:27.738Z,54.87
2019-02-22T19:46:59.633Z,54.42
2019-02-22T19:49:32.682Z,54.62
2019-02-22T19:52:01.823Z,55.09
2019-02-22T19:54:30.999Z,55.13
2019-02-22T19:57:01.791Z,56.85
2019-02-22T19:59:30.985Z,57.45
2019-02-22T20:02:02.168Z,56.76
2019-02-22T20:04:32.440Z,58.21
2019-02-22T20:07:01.560Z,59.27
2019-02-22T20:09:33.263Z,56.71
2019-02-22T20:12:03.643Z,57.01
2019-02-22T20:14:34.296Z,55.98
2019-02-22T20:17:07.304Z,55.10
2019-02-22T20:19:34.473Z,59.22
2019-02-22T20:22:05.365Z,58.02
2019-02-22T20:24:34.548Z,58.15
2019-02-22T20:27:03.877Z,58.50
2019-02-22T20:29:33.133Z,57.37
2019-02-22T20:32:04.776Z,58.68
2019-02-22T20:34:34.112Z,58.25
2019-02-22T20:37:03.312Z,59.01
2019-02-22T20:39:32.918Z,59.90
2019-02-22T20:42:03.414Z,59.87
2019-02-22T20:44:32.748Z,60.53
2019-02-22T20:47:04.782Z,59.04
2019-02-22T20:49:33.931Z,58.34
2019-02-22T20:52:06.422Z,58.18
2019-02-22T20:54:35.555Z,57.10
2019-02-22T20:57:27.661Z,57.47
2019-02-22T20:59:57.950Z,56.74
2019-02-22T21:02:32.401Z,56.75
2019-02-22T21:05:01.541Z,58.62
2019-02-22T21:07:30.668Z,60.18
2019-02-22T21:09:59.837Z,59.00
2019-02-22T21:12:37.888Z,59.01
2019-02-22T21:15:09.730Z,58.23
2019-02-22T21:17:51.901Z,57.45
2019-02-22T21:20:21.270Z,57.26
2019-02-22T21:22:53.913Z,58.02
2019-02-22T21:25:23.071Z,58.19
2019-02-22T21:27:53.047Z,56.99
2019-02-22T21:30:22.162Z,59.04
2019-02-22T21:32:51.279Z,58.46
2019-02-22T21:35:21.896Z,58.79
2019-02-22T21:37:58.096Z,58.49
2019-02-22T21:40:30.427Z,59.69
2019-02-22T21:42:59.537Z,59.15
2019-02-22T21:45:29.075Z,59.15
2019-02-22T21:48:02.702Z,58.64
2019-02-22T21:50:32.177Z,59.78
2019-02-22T21:53:04.139Z,61.54
2019-02-22T21:55:33.501Z,62.56
2019-02-22T21:58:07.251Z,63.24
2019-02-22T22:00:36.369Z,63.86
2019-02-22T22:03:07.293Z,64.74
2019-02-22T22:05:37.509Z,63.67
2019-02-22T22:08:09.278Z,62.46
2019-02-22T22:10:38.393Z,61.34
2019-02-22T22:13:07.613Z,60.71
2019-02-22T22:15:36.735Z,61.47
2019-02-22T22:18:10.255Z,60.99
2019-02-22T22:20:39.394Z,60.41
2019-02-22T22:23:08.516Z,60.23
2019-02-22T22:25:37.623Z,60.53
2019-02-22T22:28:06.828Z,61.16
2019-02-22T22:30:40.450Z,63.45
2019-02-22T22:33:10.262Z,63.14
2019-02-22T22:35:45.010Z,63.54
2019-02-22T22:38:14.118Z,63.83
2019-02-22T22:40:44.437Z,63.82
2019-02-22T22:43:21.371Z,65.10
2019-02-22T22:45:54.812Z,65.27
2019-02-22T22:48:30.648Z,66.08
2019-02-22T22:51:06.040Z,67.02
2019-02-22T22:53:35.201Z,68.41
2019-02-22T22:56:04.333Z,68.63
2019-02-22T22:58:34.333Z,69.40
2019-02-22T23:01:21.922Z,69.16
2019-02-22T23:03:51.113Z,68.79
2019-02-22T23:06:20.277Z,68.66
2019-02-22T23:08:54.539Z,68.73
2019-02-22T23:11:26.689Z,69.56
2019-02-22T23:13:57.182Z,69.24
2019-02-22T23:16:32.756Z,69.99
2019-02-22T23:19:02.302Z,70.59
2019-02-22T23:21:36.273Z,71.12
2019-02-22T23:24:06.511Z,71.07
2019-02-22T23:26:35.753Z,71.22
2019-02-22T23:29:05.427Z,71.23
2019-02-22T23:31:36.379Z,70.67
2019-02-22T23:34:06.747Z,70.99
2019-02-22T23:36:36.062Z,71.47
2019-02-22T23:39:10.796Z,70.82
2019-02-22T23:41:41.737Z,71.30
2019-02-22T23:44:10.832Z,71.41
2019-02-22T23:46:41.761Z,72.10
2019-02-22T23:49:13.365Z,71.38
2019-02-22T23:51:41.906Z,71.56
2019-02-22T23:54:10.999Z,72.03
2019-02-22T23:56:41.148Z,71.65
2019-02-22T23:59:13.352Z,71.65
